Time;durP1;ratioP1;P1;durP2;ratioP2;P2;SDS_P1;SDS_P2;PMS_P1;PMS_P2;Temp;Humidity;BMP_temperature;BMP_pressure;BME280_temperature;BME280_humidity;BME280_pressure;Samples;Min_cycle;Max_cycle;Signal;HPM_P1;HPM_P2
2022/10/25 03:59:12;;;;;;;9.45;1.40;;;13.30;99.90;;;;;;4926921;23;20057;-83
2022/10/25 04:01:39;;;;;;;6.22;1.60;;;13.30;99.90;;;;;;4898923;29;20056;-83
2022/10/25 04:04:07;;;;;;;4.35;1.30;;;13.20;99.90;;;;;;4898394;29;20049;-84
2022/10/25 04:06:33;;;;;;;5.85;1.27;;;13.30;99.90;;;;;;4905664;29;20128;-84
2022/10/25 04:09:00;;;;;;;9.27;1.42;;;13.20;99.90;;;;;;4898863;29;20060;-84
2022/10/25 04:11:27;;;;;;;8.80;1.40;;;13.20;99.90;;;;;;4895079;29;20052;-83
2022/10/25 04:13:53;;;;;;;6.20;1.63;;;13.20;99.90;;;;;;4889877;29;20671;-84
2022/10/25 04:16:22;;;;;;;7.65;1.23;;;13.20;99.90;;;;;;4895731;29;20049;-82
2022/10/25 04:18:52;;;;;;;7.60;1.50;;;13.20;99.90;;;;;;4885009;29;20053;-81
2022/10/25 04:21:19;;;;;;;;;;;13.20;99.90;;;;;;4911490;29;20629;-82
2022/10/25 04:23:47;;;;;;;5.32;1.83;;;13.20;99.90;;;;;;4887444;29;19924;-81
2022/10/25 04:26:16;;;;;;;7.85;1.67;;;13.10;99.90;;;;;;4893264;29;20045;-82
2022/10/25 04:28:44;;;;;;;6.80;1.37;;;13.10;99.90;;;;;;4903288;29;20052;-82
2022/10/25 04:31:10;;;;;;;2.55;1.38;;;13.10;99.90;;;;;;4898965;29;20049;-82
2022/10/25 04:33:37;;;;;;;5.10;1.83;;;13.10;99.90;;;;;;4895024;29;20063;-82
2022/10/25 04:36:04;;;;;;;5.00;1.30;;;13.10;99.90;;;;;;4901147;29;20071;-82
2022/10/25 04:38:31;;;;;;;4.82;1.48;;;13.10;99.90;;;;;;4899855;29;20048;-82
2022/10/25 04:40:59;;;;;;;7.18;1.42;;;13.10;99.90;;;;;;4886014;29;20056;-81
2022/10/25 04:43:27;;;;;;;7.82;1.50;;;13.10;99.90;;;;;;4890517;29;20051;-82
2022/10/25 04:45:54;;;;;;;5.07;1.65;;;13.00;99.90;;;;;;4881408;29;20049;-81
2022/10/25 04:48:21;;;;;;;9.30;1.80;;;13.10;99.90;;;;;;4891051;29;20071;-81
2022/10/25 04:50:48;;;;;;;10.00;1.40;;;13.10;99.90;;;;;;4884690;29;20059;-82
2022/10/25 04:53:14;;;;;;;5.75;1.67;;;13.10;99.90;;;;;;4881822;29;20057;-82
2022/10/25 04:55:42;;;;;;;4.50;1.50;;;13.00;99.90;;;;;;4880995;29;20055;-81
2022/10/25 04:58:08;;;;;;;4.97;1.50;;;13.10;99.90;;;;;;4885542;29;20056;-82
2022/10/25 05:00:35;;;;;;;5.78;1.80;;;13.00;99.90;;;;;;4887653;29;20130;-81
2022/10/25 05:03:02;;;;;;;13.77;1.92;;;12.90;99.90;;;;;;4884454;29;20049;-82
2022/10/25 05:05:29;;;;;;;4.78;1.50;;;13.00;99.90;;;;;;4888281;29;20049;-81
2022/10/25 05:07:55;;;;;;;4.63;1.55;;;13.00;99.90;;;;;;4887748;29;20045;-82
2022/10/25 05:10:22;;;;;;;9.27;1.88;;;13.00;99.90;;;;;;4892032;29;20057;-82
2022/10/25 05:12:49;;;;;;;6.65;1.45;;;12.80;99.90;;;;;;4885566;29;20485;-81
2022/10/25 05:15:16;;;;;;;6.05;1.95;;;12.90;99.90;;;;;;4881002;29;20053;-81
2022/10/25 05:17:42;;;;;;;4.93;1.67;;;12.90;99.90;;;;;;4880124;29;20052;-82
2022/10/25 05:20:09;;;;;;;4.95;1.60;;;12.90;99.90;;;;;;4887193;29;20403;-82
2022/10/25 05:22:36;;;;;;;9.88;2.10;;;12.90;99.90;;;;;;4880880;29;20426;-82
2022/10/25 05:25:03;;;;;;;5.85;1.77;;;12.90;99.90;;;;;;4888197;29;20052;-82
2022/10/25 05:27:29;;;;;;;9.15;2.05;;;12.90;99.90;;;;;;4882591;29;20068;-81
2022/10/25 05:29:56;;;;;;;10.00;1.98;;;12.90;99.90;;;;;;4881169;29;20053;-80
2022/10/25 05:32:23;;;;;;;6.30;2.13;;;12.80;99.90;;;;;;4893392;29;20067;-81
2022/10/25 05:34:49;;;;;;;12.95;2.50;;;12.80;99.90;;;;;;4893117;29;20063;-81
2022/10/25 05:37:16;;;;;;;12.60;1.95;;;12.80;99.90;;;;;;4886728;29;20064;-81
2022/10/25 05:39:43;;;;;;;5.57;1.58;;;12.70;99.90;;;;;;4871032;29;20059;-82
2022/10/25 05:42:09;;;;;;;6.47;1.98;;;12.80;99.90;;;;;;4884193;29;20054;-81
2022/10/25 05:44:36;;;;;;;5.57;1.27;;;12.70;99.90;;;;;;4870846;29;20086;-81
2022/10/25 05:47:03;;;;;;;7.75;1.98;;;12.70;99.90;;;;;;4883930;29;20060;-81
2022/10/25 05:49:29;;;;;;;4.85;1.83;;;12.60;99.90;;;;;;4885049;29;20831;-80
2022/10/25 05:51:56;;;;;;;5.93;2.42;;;12.60;99.90;;;;;;4893630;29;20045;-84
2022/10/25 05:54:23;;;;;;;6.97;2.53;;;12.60;99.90;;;;;;4904104;29;20155;-84
2022/10/25 05:56:50;;;;;;;8.18;2.17;;;12.60;99.90;;;;;;4895320;29;20049;-84
2022/10/25 05:59:16;;;;;;;9.60;2.33;;;12.60;99.90;;;;;;4878519;29;20054;-85
2022/10/25 06:01:44;;;;;;;7.45;2.38;;;12.60;99.90;;;;;;4897690;29;20055;-84
2022/10/25 06:04:12;;;;;;;6.30;1.60;;;12.60;99.90;;;;;;4900880;29;20105;-83
2022/10/25 06:06:40;;;;;;;9.63;2.25;;;12.60;99.90;;;;;;4894334;29;20507;-84
2022/10/25 06:09:08;;;;;;;5.82;1.77;;;12.50;99.90;;;;;;4891454;29;20525;-83
2022/10/25 06:11:36;;;;;;;9.82;2.00;;;12.50;99.90;;;;;;4898551;29;20059;-84
2022/10/25 06:14:03;;;;;;;9.23;2.65;;;12.50;99.90;;;;;;4901197;29;20060;-85
2022/10/25 06:16:30;;;;;;;9.68;1.92;;;12.50;99.90;;;;;;4877915;29;20059;-83
2022/10/25 06:18:56;;;;;;;4.22;1.75;;;12.50;99.90;;;;;;4892225;29;20075;-84
2022/10/25 06:21:26;;;;;;;9.07;1.45;;;12.60;99.90;;;;;;4884782;29;20052;-85
2022/10/25 06:23:54;;;;;;;2.03;1.33;;;12.60;99.90;;;;;;4877016;29;20067;-84
2022/10/25 06:26:24;;;;;;;7.38;1.60;;;12.60;99.90;;;;;;4888093;29;20048;-83
2022/10/25 06:28:52;;;;;;;7.20;2.17;;;12.60;99.90;;;;;;4895862;29;20059;-83
2022/10/25 06:31:19;;;;;;;6.70;1.83;;;12.60;99.90;;;;;;4884394;29;20100;-83
2022/10/25 06:33:46;;;;;;;8.30;1.58;;;12.50;99.90;;;;;;4876223;29;20053;-85
2022/10/25 06:36:22;;;;;;;4.55;1.55;;;12.50;99.90;;;;;;4897968;29;20053;-84
2022/10/25 06:38:49;;;;;;;4.63;1.50;;;12.50;99.90;;;;;;4883751;29;20085;-85
2022/10/25 06:41:21;;;;;;;11.02;1.42;;;12.50;99.90;;;;;;4871951;29;20053;-84
2022/10/25 06:43:49;;;;;;;5.72;1.85;;;12.50;99.90;;;;;;4867291;29;20045;-85
2022/10/25 06:46:27;;;;;;;6.95;1.63;;;12.50;99.90;;;;;;4892031;29;20045;-86
2022/10/25 06:48:56;;;;;;;6.85;1.70;;;12.50;99.90;;;;;;4902127;29;20068;-85
2022/10/25 06:51:24;;;;;;;9.43;2.13;;;12.50;99.90;;;;;;4902793;29;20060;-85
2022/10/25 06:53:56;;;;;;;7.90;1.58;;;12.60;99.90;;;;;;4888994;29;20053;-84
2022/10/25 06:56:24;;;;;;;7.93;1.50;;;12.60;99.90;;;;;;4876190;29;20060;-85
2022/10/25 06:58:51;;;;;;;6.30;2.40;;;12.60;99.90;;;;;;4872830;29;20056;-85
2022/10/25 07:01:19;;;;;;;5.00;1.60;;;12.70;99.90;;;;;;4888956;29;20048;-83
2022/10/25 07:03:49;;;;;;;9.48;1.60;;;12.70;99.90;;;;;;4887763;29;20376;-85
2022/10/25 07:06:19;;;;;;;7.10;1.35;;;12.70;99.90;;;;;;4887867;29;20045;-86
2022/10/25 07:08:46;;;;;;;4.70;1.35;;;12.70;99.90;;;;;;4892935;29;20048;-84
2022/10/25 07:11:18;;;;;;;5.22;1.30;;;12.70;99.90;;;;;;4889198;29;20053;-85
2022/10/25 07:13:45;;;;;;;3.40;1.40;;;12.70;99.90;;;;;;4893436;29;20130;-85
2022/10/25 07:16:14;;;;;;;10.75;1.55;;;12.80;99.90;;;;;;4890807;29;20053;-86
2022/10/25 07:18:42;;;;;;;9.32;1.77;;;12.70;99.90;;;;;;4910197;29;20422;-84
2022/10/25 07:21:17;;;;;;;8.70;1.58;;;12.80;99.90;;;;;;4905257;29;20053;-86
2022/10/25 07:23:44;;;;;;;6.43;1.40;;;12.80;99.90;;;;;;4896784;29;20099;-86
2022/10/25 07:26:16;;;;;;;4.07;1.83;;;12.80;99.90;;;;;;4886378;29;20053;-85
2022/10/25 07:28:45;;;;;;;10.52;2.17;;;12.80;99.90;;;;;;4903557;29;20507;-85
2022/10/25 07:31:13;;;;;;;8.85;1.27;;;12.80;99.90;;;;;;4899996;29;20053;-84
2022/10/25 07:33:40;;;;;;;6.78;1.67;;;12.90;99.90;;;;;;4896583;29;20065;-84
2022/10/25 07:36:08;;;;;;;5.10;1.55;;;12.80;99.90;;;;;;4891427;29;20057;-85
2022/10/25 07:38:37;;;;;;;7.80;1.85;;;12.90;99.90;;;;;;4881687;29;20059;-86
2022/10/25 07:41:05;;;;;;;9.13;1.35;;;12.90;99.90;;;;;;4901494;29;20049;-86
2022/10/25 07:43:31;;;;;;;2.70;1.17;;;13.00;99.90;;;;;;4888946;29;20083;-85
2022/10/25 07:45:58;;;;;;;5.90;1.63;;;13.00;99.90;;;;;;4905761;29;20056;-84
2022/10/25 07:48:25;;;;;;;5.78;1.15;;;13.00;99.90;;;;;;4902304;29;20057;-84
2022/10/25 07:50:52;;;;;;;6.03;1.40;;;13.10;99.90;;;;;;4917861;29;20053;-84
2022/10/25 07:53:19;;;;;;;6.03;1.52;;;13.10;99.90;;;;;;4908892;29;20041;-84
2022/10/25 07:55:56;;;;;;;6.40;1.60;;;13.10;99.90;;;;;;4902963;29;20083;-84
2022/10/25 07:58:22;;;;;;;4.35;1.50;;;13.20;99.90;;;;;;4891716;29;20109;-84
2022/10/25 08:00:49;;;;;;;3.53;1.13;;;13.30;99.90;;;;;;4892332;29;20056;-84
2022/10/25 08:03:17;;;;;;;3.88;1.33;;;13.30;99.90;;;;;;4899539;29;20056;-84
2022/10/25 08:05:46;;;;;;;6.88;1.60;;;13.30;99.90;;;;;;4894018;29;20132;-85
2022/10/25 08:08:13;;;;;;;4.28;1.38;;;13.40;99.90;;;;;;4891827;29;20049;-86
2022/10/25 08:10:42;;;;;;;6.18;1.60;;;13.40;99.90;;;;;;4901939;29;20055;-85
2022/10/25 08:13:09;;;;;;;8.73;2.25;;;13.60;99.90;;;;;;4899925;29;20143;-86
2022/10/25 08:15:36;;;;;;;8.75;2.15;;;13.60;99.90;;;;;;4894286;29;20494;-84
2022/10/25 08:18:03;;;;;;;6.95;2.35;;;13.60;99.90;;;;;;4890283;29;20056;-85
2022/10/25 08:20:30;;;;;;;6.45;2.08;;;13.70;99.90;;;;;;4898585;29;20057;-85
2022/10/25 08:23:17;;;;;;;6.35;2.17;;;13.80;99.90;;;;;;4881451;29;20049;-83
2022/10/25 08:25:43;;;;;;;6.97;2.38;;;13.90;99.90;;;;;;4894860;29;20049;-84
2022/10/25 08:28:10;;;;;;;10.40;2.67;;;13.90;99.90;;;;;;4885518;29;20113;-82
2022/10/25 08:30:38;;;;;;;10.50;2.58;;;13.90;99.90;;;;;;4886644;29;20056;-85
2022/10/25 08:33:05;;;;;;;8.55;2.70;;;14.00;99.90;;;;;;4900984;29;20517;-83
2022/10/25 08:35:37;;;;;;;8.45;2.08;;;14.10;99.90;;;;;;4894431;29;20060;-84
2022/10/25 08:38:04;;;;;;;8.68;1.88;;;14.20;99.90;;;;;;4888949;29;20060;-85
2022/10/25 08:41:04;;;;;;;6.15;1.60;;;14.20;99.90;;;;;;4899337;29;20056;-83
2022/10/25 08:43:46;;;;;;;8.40;2.20;;;14.30;99.90;;;;;;4828154;29;20054;-82
2022/10/25 08:46:25;;;;;;;6.20;1.95;;;14.30;99.90;;;;;;4902468;29;20100;-86
2022/10/25 08:49:25;;;;;;;9.10;1.80;;;14.40;99.90;;;;;;4891814;29;20108;-83
2022/10/25 08:51:54;;;;;;;5.82;1.60;;;14.40;99.90;;;;;;4877886;29;20104;-84
2022/10/25 08:54:25;;;;;;;8.23;1.92;;;14.50;99.90;;;;;;4900257;29;20057;-85
2022/10/25 08:57:00;;;;;;;6.97;1.77;;;14.50;99.90;;;;;;4893020;29;20080;-83
2022/10/25 08:59:44;;;;;;;5.50;1.20;;;14.60;99.90;;;;;;4879713;29;20048;-82
2022/10/25 09:02:40;;;;;;;5.13;1.50;;;14.60;99.90;;;;;;4886132;29;20063;-84
2022/10/25 09:05:36;;;;;;;3.97;1.60;;;14.70;99.90;;;;;;4891954;29;20045;-86
2022/10/25 09:08:09;;;;;;;3.40;0.90;;;14.80;99.90;;;;;;4892535;29;20454;-84
2022/10/25 09:10:54;;;;;;;6.80;1.50;;;14.80;99.90;;;;;;4890118;29;20115;-86
2022/10/25 09:13:31;;;;;;;3.22;1.00;;;14.90;99.90;;;;;;4883732;29;20057;-84
2022/10/25 09:16:27;;;;;;;2.03;1.00;;;15.00;99.90;;;;;;4894621;29;20053;-86
2022/10/25 09:18:58;;;;;;;4.97;1.23;;;15.10;99.90;;;;;;4877593;29;20052;-84
2022/10/25 09:21:39;;;;;;;5.38;1.30;;;15.10;99.90;;;;;;4896119;29;20148;-85
2022/10/25 09:24:28;;;;;;;4.45;1.15;;;15.20;99.90;;;;;;4905530;23;20048;-81
2022/10/25 09:27:13;;;;;;;4.03;1.08;;;15.30;99.90;;;;;;4900537;29;20057;-82
2022/10/25 09:29:59;;;;;;;4.45;0.95;;;15.40;99.90;;;;;;4891444;29;20048;-83
2022/10/25 09:32:40;;;;;;;2.72;0.90;;;15.50;99.90;;;;;;4901256;29;20045;-81
2022/10/25 09:35:24;;;;;;;8.13;1.38;;;15.50;99.90;;;;;;4899838;29;20510;-84
2022/10/25 09:37:56;;;;;;;3.80;0.90;;;15.60;99.90;;;;;;4897134;29;20415;-83
2022/10/25 09:40:28;;;;;;;2.80;0.80;;;15.70;99.90;;;;;;4897163;29;20417;-83
2022/10/25 09:43:00;;;;;;;2.53;1.05;;;15.70;99.90;;;;;;4895843;29;20048;-78
2022/10/25 09:45:41;;;;;;;4.75;1.02;;;15.70;99.90;;;;;;4896802;29;20049;-82
2022/10/25 09:48:14;;;;;;;;;;;15.80;99.90;;;;;;4898436;29;20052;-83
2022/10/25 09:51:08;;;;;;;4.95;1.00;;;15.90;99.90;;;;;;4895540;29;19924;-83
2022/10/25 09:53:39;;;;;;;3.00;1.48;;;15.80;99.90;;;;;;4893786;29;20072;-81
2022/10/25 09:56:06;;;;;;;6.53;1.15;;;15.90;99.90;;;;;;4890358;29;20061;-84
2022/10/25 09:58:41;;;;;;;5.07;0.80;;;16.00;99.90;;;;;;4894821;29;20045;-83
2022/10/25 10:01:20;;;;;;;4.75;1.13;;;16.00;99.90;;;;;;4895811;29;20467;-84
2022/10/25 10:03:47;;;;;;;4.47;0.82;;;16.10;99.90;;;;;;4904148;29;20414;-84
2022/10/25 10:06:33;;;;;;;2.00;0.77;;;16.10;99.90;;;;;;4897002;29;20052;-82
2022/10/25 10:09:06;;;;;;;1.83;0.90;;;16.10;99.90;;;;;;4892998;29;20108;-82
2022/10/25 10:11:34;;;;;;;2.78;0.60;;;16.10;99.90;;;;;;4907852;29;20053;-81
2022/10/25 10:14:12;;;;;;;3.13;1.08;;;16.20;99.90;;;;;;4895581;29;20088;-81
2022/10/25 10:16:43;;;;;;;4.80;0.98;;;16.20;99.90;;;;;;4898604;29;20049;-83
2022/10/25 10:19:21;;;;;;;4.43;1.20;;;16.20;99.90;;;;;;4900419;29;20059;-82
2022/10/25 10:22:08;;;;;;;3.28;1.00;;;16.20;99.90;;;;;;4902128;29;20057;-80
2022/10/25 10:24:41;;;;;;;3.15;0.98;;;16.30;99.90;;;;;;4900049;29;20056;-83
2022/10/25 10:27:24;;;;;;;4.45;0.95;;;16.30;99.90;;;;;;4898969;29;20387;-82
2022/10/25 10:29:55;;;;;;;3.53;1.00;;;16.30;99.90;;;;;;4901908;29;20044;-82
2022/10/25 10:32:26;;;;;;;3.10;0.90;;;16.30;99.90;;;;;;4901858;29;20057;-82
2022/10/25 10:34:56;;;;;;;2.17;0.90;;;16.30;99.90;;;;;;4902660;29;20048;-81
2022/10/25 10:37:30;;;;;;;4.38;0.85;;;16.40;99.90;;;;;;4898963;29;20179;-82
2022/10/25 10:40:03;;;;;;;3.92;0.70;;;16.40;99.90;;;;;;4902324;29;20105;-81
2022/10/25 10:42:32;;;;;;;1.48;0.65;;;16.50;99.90;;;;;;4900927;29;20063;-83
2022/10/25 10:45:07;;;;;;;7.38;1.00;;;16.50;99.90;;;;;;4901693;29;20053;-83
2022/10/25 10:47:44;;;;;;;2.78;0.90;;;16.50;99.90;;;;;;4898449;29;20060;-83
2022/10/25 10:50:25;;;;;;;2.53;0.80;;;16.60;99.90;;;;;;4902390;29;20051;-83
2022/10/25 10:52:52;;;;;;;4.60;0.70;;;16.60;99.90;;;;;;4903296;29;20051;-82
2022/10/25 10:55:30;;;;;;;3.13;0.68;;;16.70;99.90;;;;;;4902592;29;20119;-83
2022/10/25 10:58:18;;;;;;;4.75;0.80;;;16.70;99.90;;;;;;4904882;29;20063;-84
2022/10/25 11:00:48;;;;;;;3.80;0.70;;;16.70;99.90;;;;;;4897147;29;20064;-81
2022/10/25 11:03:33;;;;;;;2.53;0.73;;;16.80;99.90;;;;;;4904979;29;20372;-82
2022/10/25 11:06:00;;;;;;;4.15;0.90;;;16.90;99.90;;;;;;4903759;29;20068;-82
2022/10/25 11:08:27;;;;;;;2.83;0.63;;;16.90;99.90;;;;;;4904637;29;20052;-82
2022/10/25 11:11:19;;;;;;;2.75;0.80;;;16.90;99.90;;;;;;4905435;29;20063;-82
2022/10/25 11:13:53;;;;;;;3.88;1.23;;;16.90;99.90;;;;;;4905588;29;20052;-82
2022/10/25 11:16:35;;;;;;;7.68;0.98;;;16.90;99.90;;;;;;4898462;29;20059;-82
2022/10/25 11:19:18;;;;;;;2.42;0.90;;;17.00;99.90;;;;;;4903088;29;20053;-83
2022/10/25 11:21:56;;;;;;;6.53;1.00;;;17.00;99.90;;;;;;4902252;29;20052;-83
2022/10/25 11:24:46;;;;;;;3.15;1.10;;;17.10;99.90;;;;;;4901828;29;20044;-82
2022/10/25 11:27:33;;;;;;;1.88;0.80;;;17.20;99.90;;;;;;4900354;29;20056;-85
2022/10/25 11:30:16;;;;;;;3.00;0.68;;;17.20;99.90;;;;;;4892484;29;20561;-83
2022/10/25 11:32:48;;;;;;;4.68;0.98;;;17.20;99.90;;;;;;4901659;29;20619;-82
2022/10/25 11:35:20;;;;;;;3.13;0.95;;;17.20;99.90;;;;;;4899220;29;20084;-82
2022/10/25 11:38:07;;;;;;;4.80;1.17;;;17.30;99.90;;;;;;4899590;29;20072;-84
2022/10/25 11:40:40;;;;;;;5.25;1.23;;;17.30;99.90;;;;;;4901787;29;20309;-82
2022/10/25 11:43:54;;;;;;;3.63;0.95;;;17.30;99.90;;;;;;4895466;29;20529;-83
2022/10/25 11:46:45;;;;;;;2.80;0.50;;;17.40;99.90;;;;;;4848495;29;20127;-82
2022/10/25 11:49:37;;;;;;;1.58;0.65;;;17.40;99.90;;;;;;4899288;29;20075;-83
2022/10/25 11:52:23;;;;;;;3.38;0.80;;;17.50;99.90;;;;;;4900341;29;20057;-82
2022/10/25 11:55:08;;;;;;;5.15;0.85;;;17.50;99.90;;;;;;4903723;29;20041;-82
2022/10/25 11:57:50;;;;;;;3.80;1.45;;;17.60;99.90;;;;;;4902162;29;20414;-82
2022/10/25 12:00:22;;;;;;;2.95;0.50;;;17.60;99.90;;;;;;4897854;29;20048;-83
2022/10/25 12:03:19;;;;;;;1.77;0.70;;;17.60;99.90;;;;;;4900015;29;20131;-82
2022/10/25 12:05:57;;;;;;;1.58;0.70;;;17.70;99.90;;;;;;4899353;29;20399;-82
2022/10/25 12:08:50;;;;;;;1.50;0.68;;;17.80;99.90;;;;;;4897461;29;20059;-83
2022/10/25 12:11:28;;;;;;;0.40;0.40;;;17.80;99.90;;;;;;4897170;29;20068;-83
2022/10/25 12:14:03;;;;;;;1.67;0.35;;;17.80;99.90;;;;;;4900314;29;20679;-81
2022/10/25 12:16:31;;;;;;;3.13;0.50;;;17.80;99.90;;;;;;4902281;29;20429;-82
2022/10/25 12:19:10;;;;;;;2.85;0.50;;;17.80;99.90;;;;;;4901528;29;20085;-83
2022/10/25 12:21:57;;;;;;;2.92;0.70;;;17.90;99.90;;;;;;4900763;29;20059;-83
2022/10/25 12:24:36;;;;;;;;;;;17.90;99.90;;;;;;4908525;29;20117;-82
2022/10/25 12:27:04;;;;;;;1.58;0.70;;;17.90;99.90;;;;;;4904542;29;19946;-82
2022/10/25 12:29:40;;;;;;;0.73;0.30;;;17.90;99.90;;;;;;4905031;29;20087;-83
2022/10/25 12:32:19;;;;;;;1.38;0.70;;;17.90;99.90;;;;;;4905692;29;20052;-81
2022/10/25 12:34:48;;;;;;;1.98;0.40;;;17.90;99.90;;;;;;4903034;29;20048;-82
2022/10/25 12:37:28;;;;;;;3.20;0.43;;;17.90;99.90;;;;;;4904581;29;20053;-83
2022/10/25 12:39:55;;;;;;;1.20;0.38;;;18.00;99.90;;;;;;4904748;29;20065;-83
2022/10/25 12:42:29;;;;;;;2.03;0.45;;;18.00;99.90;;;;;;4899327;29;20052;-83
2022/10/25 12:45:30;;;;;;;1.50;0.47;;;18.00;99.90;;;;;;4902474;29;20057;-83
2022/10/25 12:48:15;;;;;;;2.88;0.40;;;18.00;99.90;;;;;;4902044;29;20056;-82
2022/10/25 12:51:20;;;;;;;2.88;0.45;;;18.10;99.90;;;;;;4901458;29;20060;-83
2022/10/25 12:54:24;;;;;;;1.38;0.38;;;18.10;99.90;;;;;;4902041;29;20128;-84
2022/10/25 12:57:04;;;;;;;2.78;0.25;;;18.10;99.90;;;;;;4904129;29;20050;-83
2022/10/25 12:59:43;;;;;;;0.73;0.30;;;18.10;99.90;;;;;;4909205;29;20049;-83
2022/10/25 13:02:36;;;;;;;0.85;0.30;;;18.10;99.90;;;;;;4904309;29;20052;-84
2022/10/25 13:05:41;;;;;;;1.25;0.28;;;18.10;99.90;;;;;;4902957;29;20048;-83
2022/10/25 13:08:09;;;;;;;1.58;0.40;;;18.30;99.90;;;;;;4911630;29;20052;-83
2022/10/25 13:10:43;;;;;;;1.55;0.40;;;18.20;99.90;;;;;;4901173;29;20056;-84
2022/10/25 13:13:21;;;;;;;1.33;0.30;;;18.20;99.90;;;;;;4904089;29;20056;-83
2022/10/25 13:15:52;;;;;;;1.17;0.50;;;18.20;99.90;;;;;;4902784;29;20060;-82
2022/10/25 13:18:31;;;;;;;4.80;0.60;;;18.20;99.90;;;;;;4903049;29;20057;-82
2022/10/25 13:21:00;;;;;;;1.00;0.30;;;18.20;99.90;;;;;;4900656;29;20083;-83
2022/10/25 13:23:42;;;;;;;1.10;0.35;;;18.20;99.90;;;;;;4903210;29;20107;-83
2022/10/25 13:26:15;;;;;;;0.77;0.30;;;18.20;99.90;;;;;;4904777;29;20100;-84
2022/10/25 13:28:54;;;;;;;1.42;0.28;;;18.10;99.90;;;;;;4904703;29;20059;-83
2022/10/25 13:31:32;;;;;;;1.95;0.45;;;18.10;99.90;;;;;;4905349;29;20054;-83
2022/10/25 13:34:11;;;;;;;0.30;0.20;;;18.10;99.90;;;;;;4907161;29;20048;-84
2022/10/25 13:36:54;;;;;;;1.63;0.35;;;18.10;99.90;;;;;;4900037;29;20463;-84
2022/10/25 13:39:44;;;;;;;0.75;0.20;;;18.10;99.90;;;;;;4901108;29;20052;-84
2022/10/25 13:42:13;;;;;;;3.97;1.43;;;18.00;99.90;;;;;;4898869;29;20055;-84
2022/10/25 13:44:56;;;;;;;5.33;1.40;;;18.00;99.90;;;;;;4894944;29;20047;-85
2022/10/25 13:47:29;;;;;;;1.80;0.40;;;18.00;99.90;;;;;;4898391;29;20060;-85
2022/10/25 13:49:56;;;;;;;2.50;0.35;;;18.00;99.90;;;;;;4896575;29;20053;-84
2022/10/25 13:52:30;;;;;;;1.23;0.60;;;18.00;99.90;;;;;;4895575;29;20112;-84
2022/10/25 13:54:57;;;;;;;1.70;0.32;;;18.00;99.90;;;;;;4900669;29;20055;-84
2022/10/25 13:57:43;;;;;;;1.08;0.47;;;18.10;99.90;;;;;;4899351;29;20059;-84
2022/10/25 14:00:32;;;;;;;1.45;0.60;;;18.00;99.90;;;;;;4897979;29;20048;-83
2022/10/25 14:03:07;;;;;;;1.08;0.40;;;18.00;99.90;;;;;;4906413;29;20062;-81
2022/10/25 14:05:55;;;;;;;1.05;0.45;;;18.00;99.90;;;;;;4895454;29;20146;-83
2022/10/25 14:08:42;;;;;;;2.75;0.68;;;17.90;99.90;;;;;;4895164;29;20084;-84
2022/10/25 14:11:17;;;;;;;0.65;0.30;;;18.00;99.90;;;;;;4891267;29;20462;-84
2022/10/25 14:14:06;;;;;;;1.35;0.32;;;18.00;99.90;;;;;;4893372;29;20074;-84
2022/10/25 14:16:52;;;;;;;0.80;0.22;;;17.90;99.90;;;;;;4895678;29;20144;-83
2022/10/25 14:19:30;;;;;;;0.73;0.38;;;17.90;99.90;;;;;;4892759;29;20136;-83
2022/10/25 14:22:11;;;;;;;2.38;0.40;;;17.90;99.90;;;;;;4897330;29;20056;-82
2022/10/25 14:24:41;;;;;;;0.60;0.30;;;17.80;99.90;;;;;;4896241;29;20053;-84
2022/10/25 14:27:31;;;;;;;1.92;0.40;;;17.90;99.90;;;;;;4890702;29;20132;-84
2022/10/25 14:30:23;;;;;;;2.08;0.40;;;17.80;99.90;;;;;;4919771;29;21571;-85
2022/10/25 14:33:05;;;;;;;1.55;0.40;;;17.80;99.90;;;;;;4921672;29;20036;-85
2022/10/25 14:35:35;;;;;;;0.95;0.40;;;17.80;99.90;;;;;;4920861;29;20061;-85
2022/10/25 14:38:12;;;;;;;0.30;0.30;;;17.70;99.90;;;;;;4929159;29;20036;-84
2022/10/25 14:40:39;;;;;;;1.00;0.30;;;17.70;99.90;;;;;;4929957;29;20099;-85
2022/10/25 14:43:41;;;;;;;2.35;0.30;;;17.70;99.90;;;;;;4904739;29;20056;-83
2022/10/25 14:46:14;;;;;;;1.10;0.40;;;17.60;99.90;;;;;;4829144;29;20054;-84
2022/10/25 14:48:45;;;;;;;3.75;0.40;;;17.60;99.90;;;;;;4895556;29;20048;-85
2022/10/25 14:51:18;;;;;;;4.63;0.30;;;17.60;99.90;;;;;;4908288;29;20112;-84
2022/10/25 14:53:50;;;;;;;1.17;0.43;;;17.50;99.90;;;;;;4910857;29;20045;-84
2022/10/25 14:56:43;;;;;;;1.48;0.50;;;17.50;99.90;;;;;;4912647;29;20063;-84
2022/10/25 14:59:27;;;;;;;0.40;0.40;;;17.40;99.90;;;;;;4899467;29;20056;-84
2022/10/25 15:02:04;;;;;;;1.33;0.30;;;17.30;99.90;;;;;;4900517;29;20059;-82
2022/10/25 15:04:39;;;;;;;3.95;0.60;;;17.30;99.90;;;;;;4898118;29;20499;-84
2022/10/25 15:07:15;;;;;;;2.28;0.50;;;17.30;99.90;;;;;;4901460;29;20418;-81
2022/10/25 15:09:49;;;;;;;3.45;0.63;;;17.20;99.90;;;;;;4884123;29;20056;-84
2022/10/25 15:12:19;;;;;;;3.40;0.47;;;17.20;99.90;;;;;;4900911;29;20044;-84
2022/10/25 15:14:47;;;;;;;5.38;0.90;;;17.10;99.90;;;;;;4900352;29;20056;-84
2022/10/25 15:17:21;;;;;;;3.60;1.00;;;17.00;99.90;;;;;;4901900;29;20056;-85
2022/10/25 15:20:13;;;;;;;4.13;0.70;;;17.10;99.90;;;;;;4898988;29;20421;-84
2022/10/25 15:22:43;;;;;;;1.35;0.60;;;17.00;99.90;;;;;;4898447;29;20059;-84
2022/10/25 15:25:22;;;;;;;2.50;0.60;;;16.90;99.90;;;;;;4905207;29;20040;-83
2022/10/25 15:27:51;;;;;;;2.00;0.63;;;16.90;99.90;;;;;;4902941;23;20053;-83
2022/10/25 15:30:39;;;;;;;2.25;0.57;;;16.90;99.90;;;;;;4876531;29;20073;-84
2022/10/25 15:33:11;;;;;;;1.77;0.47;;;16.90;99.90;;;;;;4882843;29;20060;-84
2022/10/25 15:35:49;;;;;;;3.35;0.70;;;16.80;99.90;;;;;;4878498;29;20056;-83
2022/10/25 15:38:17;;;;;;;1.02;0.70;;;16.80;99.90;;;;;;4872120;29;20405;-81
2022/10/25 15:40:47;;;;;;;4.50;0.70;;;16.80;99.90;;;;;;4856299;29;20109;-83
2022/10/25 15:43:14;;;;;;;3.25;0.70;;;16.70;99.90;;;;;;4873477;29;20046;-83
2022/10/25 15:45:41;;;;;;;0.75;0.57;;;16.70;99.90;;;;;;4858833;29;20572;-84
2022/10/25 15:48:19;;;;;;;2.05;0.50;;;16.60;99.90;;;;;;4860902;29;20444;-81
2022/10/25 15:50:50;;;;;;;3.05;0.50;;;16.60;99.90;;;;;;4858700;29;20130;-84
2022/10/25 15:53:17;;;;;;;3.13;0.35;;;16.60;99.90;;;;;;4861168;29;20050;-84
2022/10/25 15:55:45;;;;;;;2.00;0.50;;;16.60;99.90;;;;;;4864750;29;20049;-84
2022/10/25 15:58:11;;;;;;;4.32;0.45;;;16.50;99.90;;;;;;4873360;29;20062;-83
2022/10/25 16:00:38;;;;;;;1.10;0.50;;;16.50;99.90;;;;;;4857654;29;20511;-87
2022/10/25 16:03:07;;;;;;;4.88;0.55;;;16.50;99.90;;;;;;4853550;29;20138;-83
2022/10/25 16:05:36;;;;;;;4.65;0.60;;;16.40;99.90;;;;;;4861133;29;20045;-84
2022/10/25 16:08:03;;;;;;;1.90;0.40;;;16.40;99.90;;;;;;4871329;29;20053;-82
2022/10/25 16:10:30;;;;;;;2.60;0.40;;;16.30;99.90;;;;;;4861623;29;20058;-84
2022/10/25 16:13:02;;;;;;;0.38;0.30;;;16.30;99.90;;;;;;4865814;29;20054;-80
2022/10/25 16:15:30;;;;;;;0.93;0.50;;;16.20;99.90;;;;;;4854132;29;20061;-84
2022/10/25 16:17:56;;;;;;;1.85;0.40;;;16.10;99.90;;;;;;4861762;29;20060;-82
2022/10/25 16:20:25;;;;;;;5.80;0.90;;;16.10;99.90;;;;;;4853551;29;20057;-81
2022/10/25 16:22:53;;;;;;;0.88;0.52;;;16.10;99.90;;;;;;4856154;29;20057;-82
2022/10/25 16:25:21;;;;;;;6.15;0.50;;;16.00;99.90;;;;;;4856445;29;20060;-84
2022/10/25 16:27:48;;;;;;;6.18;0.50;;;16.00;99.90;;;;;;4870363;29;20050;-83
2022/10/25 16:30:18;;;;;;;1.73;0.57;;;15.90;99.90;;;;;;4860657;29;20050;-84
2022/10/25 16:32:45;;;;;;;1.80;0.70;;;15.90;99.90;;;;;;4855654;29;20125;-81
2022/10/25 16:35:13;;;;;;;0.73;0.60;;;15.90;99.90;;;;;;4859631;29;20123;-84
2022/10/25 16:37:40;;;;;;;0.98;0.70;;;15.80;99.90;;;;;;4858115;29;20061;-82
2022/10/25 16:40:08;;;;;;;2.17;0.43;;;15.80;99.90;;;;;;4872839;29;20099;-84
2022/10/25 16:42:36;;;;;;;0.60;0.40;;;15.80;99.90;;;;;;4853833;29;20057;-84
2022/10/25 16:45:29;;;;;;;12.68;0.85;;;15.70;99.90;;;;;;4857493;29;20046;-83
2022/10/25 16:47:57;;;;;;;3.08;0.47;;;15.70;99.90;;;;;;4856434;29;20045;-84
2022/10/25 16:50:25;;;;;;;2.03;0.70;;;15.70;99.90;;;;;;4875242;29;20045;-82
2022/10/25 16:52:55;;;;;;;6.05;0.95;;;15.60;99.90;;;;;;4861026;29;20050;-80
2022/10/25 16:55:22;;;;;;;6.05;0.57;;;15.60;99.90;;;;;;4867216;29;20064;-83
2022/10/25 16:57:48;;;;;;;1.85;0.50;;;15.50;99.90;;;;;;4864283;29;20412;-83
2022/10/25 17:00:15;;;;;;;1.60;0.70;;;15.50;99.90;;;;;;4864271;29;20114;-82
2022/10/25 17:02:42;;;;;;;3.95;1.00;;;15.50;99.90;;;;;;4888671;29;20049;-83
2022/10/25 17:05:19;;;;;;;1.67;0.88;;;15.50;99.90;;;;;;4863329;29;20045;-83
2022/10/25 17:07:46;;;;;;;0.57;0.38;;;15.40;99.90;;;;;;4866110;29;20049;-84
2022/10/25 17:10:17;;;;;;;2.80;1.00;;;15.40;99.90;;;;;;4878582;29;20048;-83
2022/10/25 17:12:49;;;;;;;1.98;0.63;;;15.30;99.90;;;;;;4861247;29;20055;-84
2022/10/25 17:15:17;;;;;;;4.05;1.58;;;15.40;99.90;;;;;;4862205;29;20097;-84
2022/10/25 17:17:45;;;;;;;3.78;1.15;;;15.40;99.90;;;;;;4870754;29;20049;-84
2022/10/25 17:20:14;;;;;;;2.90;1.85;;;15.30;99.90;;;;;;4872203;29;20076;-84